Time;durP1;ratioP1;P1;durP2;ratioP2;P2;SDS_P1;SDS_P2;PMS_P1;PMS_P2;Temp;Humidity;BMP_temperature;BMP_pressure;BME280_temperature;BME280_humidity;BME280_pressure;Samples;Min_cycle;Max_cycle;Signal;HPM_P1;HPM_P2
2022/09/28 00:01:46;;;;;;;11.23;6.50;;;;;;;12.30;100.00;97125.63;4379670;32;20043;-74
2022/09/28 00:04:12;;;;;;;9.18;6.37;;;;;;;11.90;100.00;97121.94;4382905;32;20066;-74
2022/09/28 00:06:39;;;;;;;7.15;5.57;;;;;;;11.90;100.00;97120.06;4382978;32;20043;-74
2022/09/28 00:09:05;;;;;;;7.95;5.65;;;;;;;11.95;100.00;97117.28;4391186;32;20031;-74
2022/09/28 00:11:32;;;;;;;11.48;5.57;;;;;;;11.84;100.00;97120.47;4383506;32;20039;-73
2022/09/28 00:14:02;;;;;;;7.53;5.37;;;;;;;11.98;100.00;97073.50;4380287;32;20056;-74
2022/09/28 00:16:34;;;;;;;8.23;5.60;;;;;;;12.31;100.00;97111.00;4382779;32;20071;-72
2022/09/28 00:19:00;;;;;;;;;;;;;;;12.38;100.00;97107.06;4397538;32;20449;-73
2022/09/28 00:21:29;;;;;;;5.82;5.22;;;;;;;12.15;100.00;97107.88;4407508;32;19993;-73
2022/09/28 00:24:17;;;;;;;7.45;5.72;;;;;;;12.18;100.00;97114.56;4396685;32;20172;-76
2022/09/28 00:26:50;;;;;;;6.37;4.62;;;;;;;11.85;100.00;97098.59;4404796;32;20444;-73
2022/09/28 00:29:18;;;;;;;5.87;4.50;;;;;;;11.70;100.00;97101.66;4382413;32;20369;-73
2022/09/28 00:31:45;;;;;;;5.72;4.97;;;;;;;11.98;100.00;97092.38;4380689;32;20179;-73
2022/09/28 00:34:11;;;;;;;6.68;4.70;;;;;;;12.11;100.00;97106.91;4383407;32;20135;-72
2022/09/28 00:36:41;;;;;;;6.22;5.10;;;;;;;11.94;100.00;97110.28;4371382;32;20028;-71
2022/09/28 00:39:08;;;;;;;6.65;4.70;;;;;;;11.81;100.00;97113.78;4353568;32;20061;-72
2022/09/28 00:41:35;;;;;;;5.47;4.53;;;;;;;11.71;100.00;97070.88;4350495;32;20047;-72
2022/09/28 00:44:22;;;;;;;5.65;4.90;;;;;;;11.78;100.00;97066.66;4354896;32;20071;-71
2022/09/28 00:46:55;;;;;;;6.95;4.82;;;;;;;11.95;100.00;97098.38;4367406;32;20439;-72
2022/09/28 00:49:33;;;;;;;7.28;4.32;;;;;;;11.83;100.00;97073.81;4343068;33;20036;-72
2022/09/28 00:52:03;;;;;;;8.40;5.03;;;;;;;11.47;100.00;97098.88;4347485;32;20062;-71
2022/09/28 00:54:30;;;;;;;8.00;5.20;;;;;;;12.01;100.00;97106.34;4352748;32;20031;-72
2022/09/28 00:56:56;;;;;;;7.22;4.80;;;;;;;11.60;100.00;97089.97;4352206;33;20057;-75
2022/09/28 00:59:23;;;;;;;6.68;4.53;;;;;;;11.03;100.00;97051.87;4323067;33;20098;-74
2022/09/28 01:01:50;;;;;;;6.90;4.95;;;;;;;11.02;100.00;97061.03;4337566;33;20032;-72
2022/09/28 01:04:16;;;;;;;7.53;4.75;;;;;;;11.05;100.00;97081.97;4337163;33;20040;-71
2022/09/28 01:06:45;;;;;;;7.28;4.53;;;;;;;11.20;100.00;97084.38;4338211;33;20048;-72
2022/09/28 01:09:13;;;;;;;13.00;5.00;;;;;;;11.76;100.00;97100.44;4334294;33;20445;-71
2022/09/28 01:11:41;;;;;;;6.65;5.00;;;;;;;11.47;100.00;97103.47;4337917;33;20377;-72
2022/09/28 01:14:11;;;;;;;7.25;4.62;;;;;;;11.70;100.00;97085.47;4323400;33;20074;-72
2022/09/28 01:16:51;;;;;;;5.55;4.75;;;;;;;11.26;100.00;97012.31;4325721;33;20054;-71
2022/09/28 01:19:28;;;;;;;7.53;4.90;;;;;;;11.14;100.00;97064.03;4326601;33;20071;-72
2022/09/28 01:22:21;;;;;;;7.60;5.35;;;;;;;11.16;100.00;97050.25;4351739;32;20456;-72
2022/09/28 01:24:54;;;;;;;5.00;4.50;;;;;;;11.69;100.00;97100.81;4355692;32;20048;-71
2022/09/28 01:27:31;;;;;;;7.30;4.57;;;;;;;11.36;100.00;97092.13;4356145;32;20035;-72
2022/09/28 01:30:06;;;;;;;4.82;4.35;;;;;;;11.44;100.00;97056.41;4358875;32;20099;-75
2022/09/28 01:32:48;;;;;;;7.95;4.87;;;;;;;11.56;100.00;97056.63;4370532;32;20073;-72
2022/09/28 01:35:30;;;;;;;6.10;3.78;;;;;;;11.63;100.00;97092.06;4366872;32;20071;-71
2022/09/28 01:38:12;;;;;;;6.00;5.40;;;;;;;11.16;100.00;97091.44;4354280;32;20054;-71
2022/09/28 01:40:40;;;;;;;6.43;5.10;;;;;;;11.38;100.00;97046.81;4359426;32;20064;-71
2022/09/28 01:43:13;;;;;;;7.47;5.40;;;;;;;11.43;100.00;97087.13;4353093;32;20260;-72
2022/09/28 01:45:45;;;;;;;6.50;5.37;;;;;;;10.80;100.00;97035.63;4306074;33;20044;-74
2022/09/28 01:48:18;;;;;;;6.65;4.75;;;;;;;11.57;100.00;97033.97;4311446;33;20045;-72
2022/09/28 01:50:49;;;;;;;5.85;4.90;;;;;;;11.49;100.00;97069.75;4305913;33;20045;-72
2022/09/28 01:53:23;;;;;;;11.12;5.35;;;;;;;11.14;100.00;97034.41;4311558;33;20045;-72
2022/09/28 01:55:55;;;;;;;8.88;4.95;;;;;;;11.21;100.00;97085.94;4309765;33;20070;-72
2022/09/28 01:58:25;;;;;;;5.35;4.85;;;;;;;11.72;100.00;97083.25;4311699;33;20030;-72
2022/09/28 02:00:59;;;;;;;7.53;4.37;;;;;;;11.85;100.00;97087.78;4309914;33;20383;-72
2022/09/28 02:03:37;;;;;;;7.53;4.80;;;;;;;11.51;100.00;97029.81;4309761;33;20079;-72
2022/09/28 02:06:12;;;;;;;6.57;4.35;;;;;;;10.86;100.00;97023.63;4309502;33;20044;-72
2022/09/28 02:08:52;;;;;;;5.20;4.12;;;;;;;11.30;100.00;97080.66;4310220;33;20110;-73
2022/09/28 02:11:21;;;;;;;10.77;4.87;;;;;;;10.80;100.00;97032.12;4320735;33;20079;-72
2022/09/28 02:13:59;;;;;;;6.22;4.97;;;;;;;11.35;100.00;97042.03;4330697;33;20044;-72
2022/09/28 02:16:47;;;;;;;4.05;3.62;;;;;;;11.54;100.00;97088.50;4322384;33;20213;-71
2022/09/28 02:19:20;;;;;;;4.80;4.00;;;;;;;10.98;100.00;97008.91;4338264;33;20446;-71
2022/09/28 02:21:54;;;;;;;8.10;4.28;;;;;;;11.66;100.00;97062.91;4340152;33;20088;-72
2022/09/28 02:25:19;;;;;;;3.62;3.33;;;;;;;11.78;100.00;97092.81;4381826;32;20030;-74
2022/09/28 02:27:56;;;;;;;5.55;3.75;;;;;;;11.60;100.00;97081.91;4346612;32;20056;-72
2022/09/28 02:30:23;;;;;;;6.60;3.90;;;;;;;11.17;100.00;97009.56;4324851;33;20059;-71
2022/09/28 02:32:53;;;;;;;4.78;3.87;;;;;;;11.84;100.00;97088.91;4330320;32;20450;-71
2022/09/28 02:35:20;;;;;;;4.25;3.83;;;;;;;11.45;100.00;97052.59;4340592;32;20058;-71
2022/09/28 02:37:48;;;;;;;4.87;4.15;;;;;;;11.14;100.00;97064.03;4338424;33;20036;-71
2022/09/28 02:40:21;;;;;;;13.43;3.72;;;;;;;11.39;100.00;97102.28;4349074;32;20059;-71
2022/09/28 02:43:12;;;;;;;3.97;3.30;;;;;;;10.92;100.00;97034.31;4340322;33;20423;-71
2022/09/28 02:46:02;;;;;;;4.78;3.70;;;;;;;11.30;100.00;97096.03;4339322;33;20540;-71
2022/09/28 02:48:38;;;;;;;4.90;4.40;;;;;;;11.37;100.00;97096.41;4294267;33;20078;-70
2022/09/28 02:51:32;;;;;;;5.80;4.10;;;;;;;11.13;100.00;97067.81;4308696;33;20052;-70
2022/09/28 02:54:05;;;;;;;3.97;3.17;;;;;;;11.27;100.00;97095.53;4303821;33;20067;-70
2022/09/28 02:56:53;;;;;;;4.60;3.97;;;;;;;10.69;100.00;97104.19;4293712;33;20045;-70
2022/09/28 03:02:19;;;;;;;10.38;4.05;;;;;;;11.00;100.00;97106.31;4329590;33;20327;-71
2022/09/28 03:05:05;;;;;;;4.35;3.80;;;;;;;10.89;100.00;97103.81;4322981;33;20037;-71
2022/09/28 03:07:37;;;;;;;6.40;4.37;;;;;;;10.33;100.00;97067.97;4323269;33;20045;-74
2022/09/28 03:10:20;;;;;;;6.37;4.72;;;;;;;10.85;100.00;97094.75;4324907;33;20088;-71
2022/09/28 03:12:49;;;;;;;5.60;4.37;;;;;;;10.58;100.00;97074.00;4325540;33;20084;-70
2022/09/28 03:15:19;;;;;;;9.65;4.40;;;;;;;10.67;100.00;97072.22;4336737;33;20076;-75
2022/09/28 03:17:45;;;;;;;7.30;4.62;;;;;;;10.83;100.00;97118.50;4343544;32;20074;-70
2022/09/28 03:20:12;;;;;;;8.13;5.65;;;;;;;10.15;100.00;97077.66;4376932;32;20043;-70
2022/09/28 03:22:39;;;;;;;9.10;6.28;;;;;;;10.62;100.00;97117.25;4383639;32;20043;-71
2022/09/28 03:25:07;;;;;;;10.48;6.35;;;;;;;10.71;100.00;97115.47;4388909;32;20056;-71
2022/09/28 03:27:35;;;;;;;11.77;6.25;;;;;;;10.69;100.00;97126.53;4383370;32;20039;-70
2022/09/28 03:30:03;;;;;;;13.62;6.47;;;;;;;10.78;100.00;97126.63;4391290;32;20073;-70
2022/09/28 03:32:29;;;;;;;11.45;6.68;;;;;;;10.60;100.00;97071.00;4399261;32;20170;-70
2022/09/28 03:34:56;;;;;;;10.88;6.50;;;;;;;10.37;100.00;97070.88;4398539;32;20084;-71
2022/09/28 03:37:22;;;;;;;13.38;5.65;;;;;;;10.10;100.00;97032.03;4397576;32;20109;-73
2022/09/28 03:39:48;;;;;;;7.75;5.50;;;;;;;10.58;100.00;97118.94;4386363;32;20735;-71
2022/09/28 03:42:15;;;;;;;9.73;6.10;;;;;;;10.05;100.00;97077.84;4395814;32;20047;-71
2022/09/28 03:44:42;;;;;;;6.72;5.75;;;;;;;10.56;100.00;97126.50;4400518;32;20064;-72
2022/09/28 03:47:09;;;;;;;12.40;5.47;;;;;;;9.95;100.00;97089.53;4397439;32;20039;-71
2022/09/28 03:49:36;;;;;;;9.73;5.62;;;;;;;10.25;100.00;97118.94;4405911;32;20068;-71
2022/09/28 03:52:03;;;;;;;7.90;6.10;;;;;;;10.13;100.00;97130.94;4431756;32;20491;-71
2022/09/28 03:54:29;;;;;;;8.43;5.35;;;;;;;10.20;100.00;97084.06;4431386;32;20030;-70
2022/09/28 03:56:56;;;;;;;10.68;6.10;;;;;;;10.38;100.00;97072.47;4396937;32;20097;-71
2022/09/28 03:59:23;;;;;;;10.60;7.00;;;;;;;10.27;100.00;97076.38;4398814;32;20212;-74
2022/09/28 04:01:50;;;;;;;6.75;5.78;;;;;;;10.40;100.00;97077.53;4395383;32;20038;-71
2022/09/28 04:04:17;;;;;;;7.85;6.07;;;;;;;10.60;100.00;97119.44;4368816;32;20077;-71
2022/09/28 04:06:44;;;;;;;8.68;6.40;;;;;;;10.44;100.00;97122.41;4368436;32;20081;-70
2022/09/28 04:09:11;;;;;;;9.07;5.82;;;;;;;10.50;100.00;97115.06;4366967;32;20179;-70
2022/09/28 04:11:38;;;;;;;10.98;5.22;;;;;;;10.61;100.00;97115.66;4352809;32;20036;-73
2022/09/28 04:14:04;;;;;;;11.38;6.35;;;;;;;9.82;100.00;97076.84;4351216;32;20039;-70
2022/09/28 04:16:30;;;;;;;16.08;6.32;;;;;;;10.02;100.00;97099.13;4351559;32;20070;-70
2022/09/28 04:18:57;;;;;;;7.80;5.10;;;;;;;9.55;100.00;97072.13;4330233;33;20033;-71
2022/09/28 04:21:24;;;;;;;13.98;6.47;;;;;;;9.81;100.00;97126.31;4325874;33;20154;-71
2022/09/28 04:23:53;;;;;;;9.70;6.60;;;;;;;10.18;100.00;97128.16;4337743;33;20049;-72
2022/09/28 04:26:26;;;;;;;7.53;5.80;;;;;;;9.63;100.00;97066.09;4336590;33;20059;-70
2022/09/28 04:31:49;;;;;;;10.93;5.47;;;;;;;9.80;100.00;97082.50;4350701;32;20070;-73
2022/09/28 04:34:18;;;;;;;11.25;5.85;;;;;;;10.06;100.00;97117.06;4344886;32;20062;-70
2022/09/28 04:36:46;;;;;;;9.60;5.55;;;;;;;9.92;100.00;97110.84;4382856;32;20035;-71
2022/09/28 04:39:14;;;;;;;21.95;6.87;;;;;;;9.94;100.00;97108.62;4387939;32;20170;-71
2022/09/28 04:41:42;;;;;;;14.10;8.38;;;;;;;9.99;100.00;97095.16;4337055;33;20488;-71
2022/09/28 04:44:09;;;;;;;10.68;6.20;;;;;;;10.08;100.00;97104.13;4337137;33;20044;-71
2022/09/28 04:46:35;;;;;;;13.82;6.25;;;;;;;9.43;100.00;97014.28;4331054;33;20375;-71
2022/09/28 04:49:14;;;;;;;17.35;7.72;;;;;;;10.05;100.00;97110.09;4327650;33;20048;-72
2022/09/28 04:51:40;;;;;;;18.62;7.20;;;;;;;10.36;100.00;97109.63;4351629;32;20436;-72
2022/09/28 04:54:07;;;;;;;8.52;5.95;;;;;;;9.55;100.00;97003.06;4321959;33;20616;-72
2022/09/28 04:56:33;;;;;;;8.70;6.37;;;;;;;10.00;100.00;97108.28;4322007;33;20040;-71
2022/09/28 04:59:00;;;;;;;9.73;6.60;;;;;;;9.75;100.00;97079.13;4323907;33;20095;-71
2022/09/28 05:01:28;;;;;;;13.68;6.20;;;;;;;9.98;100.00;97115.03;4326038;33;20101;-74
2022/09/28 05:03:57;;;;;;;8.75;5.62;;;;;;;9.62;100.00;97102.13;4331812;33;20040;-72
2022/09/28 05:06:27;;;;;;;10.25;6.72;;;;;;;9.33;100.00;97075.41;4327824;33;20073;-71
2022/09/28 05:08:56;;;;;;;9.52;6.85;;;;;;;9.86;100.00;97122.75;4338182;33;20048;-71
2022/09/28 05:11:22;;;;;;;10.32;6.20;;;;;;;9.41;100.00;97051.37;4337707;33;20090;-75
2022/09/28 05:13:49;;;;;;;10.10;6.75;;;;;;;9.78;100.00;97116.12;4334337;33;20354;-72
2022/09/28 05:16:16;;;;;;;11.00;7.10;;;;;;;9.78;100.00;97108.06;4376903;32;20046;-72
2022/09/28 05:18:55;;;;;;;11.95;6.68;;;;;;;9.35;100.00;97078.59;4377386;32;20074;-73
2022/09/28 05:21:24;;;;;;;10.27;6.68;;;;;;;9.72;100.00;97139.62;4367946;32;20031;-74
2022/09/28 05:23:51;;;;;;;9.40;6.45;;;;;;;9.53;100.00;97125.38;4350384;32;20032;-73
2022/09/28 05:26:18;;;;;;;10.43;7.43;;;;;;;9.16;100.00;97097.34;4352863;32;20206;-72
2022/09/28 05:28:45;;;;;;;7.65;5.47;;;;;;;9.73;100.00;97143.91;4352538;32;20036;-72
2022/09/28 05:31:14;;;;;;;9.00;5.87;;;;;;;8.95;100.00;97086.88;4356042;32;20069;-71
2022/09/28 05:33:46;;;;;;;10.05;6.00;;;;;;;9.15;100.00;97111.87;4365952;32;20040;-72
2022/09/28 05:36:13;;;;;;;7.70;5.80;;;;;;;9.97;100.00;97134.94;4374416;32;20083;-72
2022/09/28 05:38:41;;;;;;;9.05;6.53;;;;;;;9.57;100.00;97121.00;4367769;32;20051;-72
2022/09/28 05:41:08;;;;;;;13.45;8.43;;;;;;;9.28;100.00;97095.06;4366359;32;20072;-72
2022/09/28 05:43:35;;;;;;;12.50;7.87;;;;;;;9.89;100.00;97130.22;4350099;33;20039;-75
2022/09/28 05:46:04;;;;;;;16.73;9.05;;;;;;;9.56;100.00;97087.19;4336008;33;20058;-73
2022/09/28 05:48:31;;;;;;;37.15;13.55;;;;;;;9.48;100.00;97123.56;4337669;33;20062;-72
2022/09/28 05:50:58;;;;;;;14.13;9.13;;;;;;;9.64;100.00;97132.22;4321981;33;20025;-71
2022/09/28 05:53:26;;;;;;;13.62;7.85;;;;;;;9.72;100.00;97080.50;4321889;33;20033;-71
2022/09/28 05:55:56;;;;;;;10.88;6.35;;;;;;;9.44;100.00;97079.53;4329820;33;20048;-77
2022/09/28 05:58:24;;;;;;;7.45;5.07;;;;;;;9.57;100.00;97094.94;4339434;32;20052;-75
2022/09/28 06:00:55;;;;;;;13.32;6.93;;;;;;;9.41;100.00;97099.72;4353146;32;20091;-75
2022/09/28 06:03:21;;;;;;;14.07;8.43;;;;;;;9.32;100.00;97133.69;4355741;32;20048;-75
2022/09/28 06:05:48;;;;;;;13.38;7.18;;;;;;;9.52;100.00;97091.53;4352655;32;20054;-76
2022/09/28 06:08:14;;;;;;;6.90;5.75;;;;;;;9.76;100.00;97135.25;4354126;32;20064;-75
2022/09/28 06:10:42;;;;;;;7.60;5.57;;;;;;;8.96;100.00;97034.00;4353290;32;20054;-76
2022/09/28 06:13:10;;;;;;;10.18;6.37;;;;;;;9.01;100.00;97032.03;4324579;33;20084;-76
2022/09/28 06:15:41;;;;;;;6.50;5.37;;;;;;;9.71;100.00;97127.25;4321475;33;20054;-79
2022/09/28 06:18:15;;;;;;;9.40;4.85;;;;;;;9.55;100.00;97074.81;4324378;33;20469;-75
2022/09/28 06:20:42;;;;;;;11.07;6.40;;;;;;;10.00;100.00;97119.03;4324980;33;20491;-75
2022/09/28 06:23:11;;;;;;;12.25;5.72;;;;;;;9.99;100.00;97124.72;4337545;33;20044;-78
2022/09/28 06:25:39;;;;;;;10.32;5.37;;;;;;;9.71;100.00;97127.25;4351915;32;20032;-76
2022/09/28 06:28:09;;;;;;;9.43;4.97;;;;;;;9.79;100.00;97110.47;4352572;32;20023;-75
2022/09/28 06:30:37;;;;;;;6.90;4.95;;;;;;;10.12;100.00;97102.44;4351470;32;20110;-74
2022/09/28 06:33:07;;;;;;;11.60;5.65;;;;;;;10.11;100.00;97119.66;4339243;33;20072;-75
2022/09/28 06:35:34;;;;;;;8.60;5.53;;;;;;;9.95;100.00;97121.78;4337189;33;20048;-75
2022/09/28 06:38:01;;;;;;;8.52;5.90;;;;;;;9.39;100.00;97045.47;4339406;33;20056;-78
2022/09/28 06:40:27;;;;;;;9.82;6.20;;;;;;;10.37;100.00;97116.62;4338520;33;20054;-75
2022/09/28 06:42:57;;;;;;;7.62;5.25;;;;;;;10.13;100.00;97082.53;4338553;33;20032;-76
2022/09/28 06:45:29;;;;;;;8.02;5.62;;;;;;;9.86;100.00;97079.75;4354194;32;20442;-76
2022/09/28 06:48:00;;;;;;;11.82;6.90;;;;;;;10.67;100.00;97126.06;4355118;32;20071;-76
2022/09/28 06:50:34;;;;;;;12.10;5.25;;;;;;;10.32;100.00;97082.53;4353540;32;20044;-77
2022/09/28 06:53:04;;;;;;;16.98;5.10;;;;;;;10.69;100.00;97123.03;4364364;32;20064;-81
2022/09/28 06:55:32;;;;;;;11.55;7.05;;;;;;;10.51;100.00;97127.37;4353136;32;20058;-76
2022/09/28 06:58:03;;;;;;;7.07;4.93;;;;;;;10.68;100.00;97122.25;4354448;32;20031;-77
2022/09/28 07:00:32;;;;;;;7.75;4.70;;;;;;;9.70;100.00;97055.81;4335497;33;20036;-76
2022/09/28 07:03:05;;;;;;;8.88;5.40;;;;;;;9.99;100.00;97095.94;4339092;33;20041;-80
2022/09/28 07:05:35;;;;;;;9.02;5.22;;;;;;;10.42;100.00;97113.00;4338532;32;20036;-76
2022/09/28 07:08:05;;;;;;;8.55;5.10;;;;;;;9.99;100.00;97049.44;4339395;33;20044;-76
2022/09/28 07:10:39;;;;;;;6.97;4.87;;;;;;;10.26;100.00;97090.94;4355492;32;20036;-76
2022/09/28 07:13:07;;;;;;;7.07;5.30;;;;;;;10.72;100.00;97133.22;4354443;32;20058;-80
2022/09/28 07:15:34;;;;;;;11.25;6.53;;;;;;;10.33;100.00;97126.34;4367946;32;20179;-75
2022/09/28 07:18:02;;;;;;;5.70;4.65;;;;;;;10.45;100.00;97096.28;4367702;32;20036;-76
2022/09/28 07:20:30;;;;;;;6.80;5.28;;;;;;;10.27;100.00;97111.34;4368666;32;20202;-75
2022/09/28 07:23:00;;;;;;;5.45;3.58;;;;;;;10.57;100.00;97103.91;4368680;32;20094;-75
2022/09/28 07:25:29;;;;;;;8.15;4.50;;;;;;;10.84;100.00;97140.81;4366394;32;20035;-77
2022/09/28 07:27:58;;;;;;;10.00;5.05;;;;;;;10.83;100.00;97145.41;4368664;32;20073;-75
2022/09/28 07:30:26;;;;;;;12.40;5.60;;;;;;;11.16;100.00;97142.63;4366644;32;20596;-73
2022/09/28 07:32:53;;;;;;;7.32;3.97;;;;;;;11.42;100.00;97128.63;4367712;32;20035;-75
2022/09/28 07:35:21;;;;;;;9.98;5.07;;;;;;;11.14;100.00;97144.81;4367280;32;20421;-76
2022/09/28 07:37:48;;;;;;;7.57;5.37;;;;;;;11.42;100.00;97090.91;4379360;32;20490;-74
2022/09/28 07:43:06;;;;;;;7.35;5.47;;;;;;;11.26;100.00;97134.34;4398929;32;20055;-76
2022/09/28 07:45:36;;;;;;;;;;;;;;;11.13;100.00;97096.66;4352374;32;20024;-76
2022/09/28 07:48:04;;;;;;;5.47;4.62;;;;;;;11.22;100.00;97130.66;4354000;32;20249;-74
2022/09/28 07:50:32;;;;;;;6.28;5.10;;;;;;;11.31;100.00;97121.88;4355577;32;20103;-76
2022/09/28 07:53:06;;;;;;;7.97;5.68;;;;;;;11.13;100.00;97089.34;4366379;32;20142;-81
2022/09/28 07:55:33;;;;;;;6.55;4.75;;;;;;;11.75;100.00;97088.03;4366248;32;20162;-75
2022/09/28 07:58:01;;;;;;;6.72;4.30;;;;;;;11.50;100.00;97125.22;4358644;32;20040;-76
2022/09/28 08:00:30;;;;;;;6.85;4.45;;;;;;;11.56;100.00;97134.81;4351595;32;20054;-75
2022/09/28 08:03:01;;;;;;;7.07;4.82;;;;;;;11.40;100.00;97130.84;4352136;32;20036;-75
2022/09/28 08:05:30;;;;;;;8.48;5.37;;;;;;;11.03;100.00;97035.72;4352852;32;20043;-74
2022/09/28 08:07:58;;;;;;;7.60;5.12;;;;;;;11.84;100.00;97129.38;4358590;32;20035;-76
2022/09/28 08:10:26;;;;;;;5.18;3.97;;;;;;;11.96;100.00;97135.03;4366723;32;20043;-77
2022/09/28 08:12:55;;;;;;;10.52;4.65;;;;;;;11.37;100.00;97089.13;4351791;32;20399;-76
2022/09/28 08:15:23;;;;;;;8.40;5.05;;;;;;;12.16;100.00;97130.28;4350934;32;20043;-74
2022/09/28 08:17:49;;;;;;;7.12;4.90;;;;;;;12.09;100.00;97092.13;4352649;32;20485;-75
2022/09/28 08:23:04;;;;;;;8.15;4.03;;;;;;;12.23;100.00;97117.16;4352391;32;20425;-79
2022/09/28 08:25:32;;;;;;;6.28;4.15;;;;;;;11.74;100.00;97048.69;4336788;33;20063;-75
2022/09/28 08:28:00;;;;;;;7.03;5.10;;;;;;;11.68;100.00;97077.69;4350569;32;20020;-77
2022/09/28 08:30:30;;;;;;;6.93;3.80;;;;;;;11.91;100.00;97086.56;4323690;33;20047;-75
2022/09/28 08:32:57;;;;;;;6.20;3.65;;;;;;;11.74;100.00;97075.66;4337726;33;20062;-76
2022/09/28 08:35:25;;;;;;;5.87;3.60;;;;;;;11.67;100.00;97086.06;4335501;33;20454;-76
2022/09/28 08:37:53;;;;;;;3.30;3.00;;;;;;;11.61;100.00;97061.91;4337965;33;20065;-77
2022/09/28 08:40:24;;;;;;;5.53;2.87;;;;;;;12.35;100.00;97128.19;4336870;33;20347;-77
2022/09/28 08:43:03;;;;;;;4.15;2.40;;;;;;;11.84;100.00;97045.78;4338120;33;20057;-76
2022/09/28 08:45:35;;;;;;;3.33;2.50;;;;;;;11.77;100.00;97083.13;4336528;33;20080;-77
2022/09/28 08:51:14;;;;;;;4.85;2.33;;;;;;;11.87;100.00;97041.66;4340894;32;20172;-75
2022/09/28 08:53:49;;;;;;;5.97;2.50;;;;;;;12.46;100.00;97084.72;4344349;32;20040;-78
2022/09/28 08:56:54;;;;;;;9.68;2.92;;;;;;;11.91;100.00;97021.84;4336337;33;20396;-76
2022/09/28 08:59:26;;;;;;;3.45;2.50;;;;;;;12.69;100.00;97110.59;4300173;33;20037;-75
2022/09/28 09:02:03;;;;;;;3.55;2.50;;;;;;;12.91;100.00;97081.94;4316237;33;20036;-77
2022/09/28 09:04:32;;;;;;;7.12;2.70;;;;;;;12.94;100.00;97078.62;4320886;33;20112;-78
2022/09/28 09:07:24;;;;;;;4.47;2.92;;;;;;;13.51;100.00;97122.97;4341939;33;20080;-76
2022/09/28 09:10:00;;;;;;;2.90;2.28;;;;;;;13.05;100.00;97128.56;4351038;33;20059;-74
2022/09/28 09:13:05;;;;;;;4.18;2.50;;;;;;;13.46;100.00;97136.66;4371059;32;20134;-75
2022/09/28 09:15:55;;;;;;;2.80;2.12;;;;;;;12.87;100.00;97097.16;4370048;32;20043;-75
2022/09/28 09:18:53;;;;;;;3.85;2.10;;;;;;;12.96;100.00;97097.22;4380479;32;20481;-78
2022/09/28 09:21:40;;;;;;;2.47;2.28;;;;;;;13.21;100.00;97125.41;4372136;32;20379;-80
2022/09/28 09:24:36;;;;;;;2.50;2.37;;;;;;;13.06;100.00;97075.31;4367991;32;20044;-77
2022/09/28 09:27:20;;;;;;;3.28;2.97;;;;;;;12.99;100.00;97132.50;4373292;32;20027;-79
2022/09/28 09:29:58;;;;;;;4.55;2.30;;;;;;;12.74;100.00;97106.19;4370546;32;20491;-76
2022/09/28 09:32:45;;;;;;;2.40;2.17;;;;;;;12.78;100.00;97117.94;4352900;32;20099;-77
2022/09/28 09:35:44;;;;;;;2.08;1.98;;;;;;;12.61;100.00;97130.25;4367456;32;20560;-77
2022/09/28 09:38:31;;;;;;;6.78;2.05;;;;;;;11.72;100.00;97059.00;4372123;32;20053;-77
2022/09/28 09:41:26;;;;;;;8.93;2.47;;;;;;;12.44;100.00;97093.12;4329204;33;20114;-76
2022/09/28 09:44:21;;;;;;;10.45;2.50;;;;;;;12.77;100.00;97127.94;4342029;32;20023;-76
2022/09/28 09:47:03;;;;;;;6.62;2.28;;;;;;;13.09;100.00;97088.97;4352267;32;20091;-76
2022/09/28 09:49:35;;;;;;;2.22;2.03;;;;;;;13.17;100.00;97097.44;4350398;32;20450;-79
2022/09/28 09:52:05;;;;;;;2.47;2.28;;;;;;;13.65;100.00;97112.81;4355388;32;20398;-76
2022/09/28 09:54:57;;;;;;;1.48;1.40;;;;;;;13.27;100.00;97091.72;4353325;32;20193;-75
2022/09/28 09:57:31;;;;;;;3.28;1.67;;;;;;;13.47;100.00;97116.62;4337933;33;20118;-75
2022/09/28 10:00:00;;;;;;;2.17;1.60;;;;;;;14.16;100.00;97113.94;4339556;33;20569;-76
2022/09/28 10:02:33;;;;;;;2.10;1.85;;;;;;;14.33;100.00;97109.63;4341981;32;20344;-76
2022/09/28 10:05:09;;;;;;;1.58;1.48;;;;;;;14.28;100.00;97113.31;4365636;32;20065;-76
2022/09/28 10:07:42;;;;;;;1.77;1.67;;;;;;;14.59;100.00;97111.50;4335900;33;20325;-76
2022/09/28 10:10:21;;;;;;;3.25;1.90;;;;;;;14.69;100.00;97089.50;4308166;33;20396;-76
2022/09/28 10:12:50;;;;;;;3.95;2.53;;;;;;;14.25;100.00;97080.66;4306329;33;20049;-77
2022/09/28 10:15:23;;;;;;;1.42;1.40;;;;;;;14.44;100.00;97132.56;4309262;33;20150;-76
2022/09/28 10:17:55;;;;;;;3.37;1.50;;;;;;;14.96;100.00;97111.87;4313963;33;20417;-77
2022/09/28 10:20:37;;;;;;;2.53;1.37;;;;;;;13.75;100.00;97104.41;4332559;33;20427;-75
2022/09/28 10:23:16;;;;;;;1.42;1.33;;;;;;;14.02;100.00;97126.84;4336787;33;20382;-74
2022/09/28 10:25:44;;;;;;;1.60;1.50;;;;;;;14.35;100.00;97099.28;4322899;33;20062;-76
2022/09/28 10:28:18;;;;;;;1.25;1.20;;;;;;;14.61;100.00;97082.19;4321871;33;20044;-77
2022/09/28 10:30:44;;;;;;;2.50;1.40;;;;;;;14.39;100.00;97108.34;4319174;33;20064;-76
2022/09/28 10:33:29;;;;;;;3.03;1.15;;;;;;;14.13;100.00;97087.50;4321918;33;20170;-74
2022/09/28 10:36:03;;;;;;;2.60;1.23;;;;;;;14.73;100.00;97068.78;4331139;33;20269;-75
2022/09/28 10:38:33;;;;;;;1.60;1.50;;;;;;;15.25;100.00;97109.19;4347044;32;20083;-75
2022/09/28 10:41:09;;;;;;;1.52;1.37;;;;;;;15.63;100.00;97110.22;4326563;33;20544;-77
2022/09/28 10:43:38;;;;;;;5.87;2.33;;;;;;;15.78;100.00;97117.03;4352937;32;20077;-76
2022/09/28 10:46:12;;;;;;;1.62;1.30;;;;;;;14.81;100.00;97080.69;4351304;32;20055;-77
2022/09/28 10:48:59;;;;;;;1.20;1.20;;;;;;;14.29;100.00;97076.97;4353058;32;20058;-75
2022/09/28 10:51:41;;;;;;;1.90;1.42;;;;;;;14.55;100.00;97095.09;4351076;32;20065;-76
2022/09/28 10:54:22;;;;;;;1.10;1.10;;;;;;;15.36;100.00;97106.09;4350424;32;20032;-77
2022/09/28 10:56:51;;;;;;;1.40;1.30;;;;;;;14.93;100.00;97126.06;4360639;32;20464;-71
2022/09/28 10:59:23;;;;;;;1.10;1.10;;;;;;;14.49;100.00;97064.69;4361771;32;20147;-72
2022/09/28 11:01:56;;;;;;;3.62;1.12;;;;;;;15.16;100.00;97132.84;4365438;32;20051;-72
2022/09/28 11:04:26;;;;;;;5.15;0.90;;;;;;;14.52;100.00;97112.00;4366612;32;20024;-72
2022/09/28 11:06:58;;;;;;;1.58;1.17;;;;;;;14.49;100.00;97090.97;4360415;32;20055;-74
2022/09/28 11:09:29;;;;;;;1.30;1.00;;;;;;;14.76;100.00;97141.28;4362031;32;20114;-75
2022/09/28 11:12:01;;;;;;;8.77;1.50;;;;;;;13.71;100.00;97095.31;4380702;32;20046;-72
2022/09/28 11:14:39;;;;;;;10.02;2.28;;;;;;;14.09;100.00;97092.00;4395432;32;20081;-75
2022/09/28 11:17:29;;;;;;;1.30;1.20;;;;;;;13.92;100.00;97132.56;4398202;32;20050;-73
2022/09/28 11:19:57;;;;;;;0.98;0.90;;;;;;;13.65;100.00;97129.03;4372617;32;20184;-72
2022/09/28 11:22:29;;;;;;;5.90;1.17;;;;;;;13.84;100.00;97125.25;4352720;32;20071;-76
2022/09/28 11:25:15;;;;;;;1.35;1.20;;;;;;;14.35;100.00;97113.59;4348809;32;20079;-73
2022/09/28 11:28:03;;;;;;;1.40;1.30;;;;;;;14.93;100.00;97094.34;4351369;32;20078;-74
2022/09/28 11:30:37;;;;;;;2.87;1.00;;;;;;;15.56;100.00;97127.03;4350821;32;20397;-71
2022/09/28 11:33:16;;;;;;;7.90;1.00;;;;;;;14.28;100.00;97128.72;4352478;32;20163;-71
2022/09/28 11:36:08;;;;;;;1.10;1.10;;;;;;;14.98;100.00;97136.72;4337478;33;20029;-73
2022/09/28 11:38:56;;;;;;;2.83;1.30;;;;;;;14.66;100.00;97128.06;4338416;33;20044;-71
2022/09/28 11:41:34;;;;;;;4.12;1.60;;;;;;;15.26;100.00;97134.38;4328408;33;20146;-74
2022/09/28 11:44:23;;;;;;;1.70;1.60;;;;;;;15.02;100.00;97086.97;4338536;33;20052;-73
2022/09/28 11:50:17;;;;;;;1.58;1.48;;;;;;;15.57;100.00;97120.50;4337248;33;20048;-73
2022/09/28 11:52:55;;;;;;;3.53;1.10;;;;;;;14.94;100.00;97123.03;4356084;32;20126;-73
2022/09/28 11:56:01;;;;;;;6.07;1.50;;;;;;;14.23;100.00;97082.87;4352125;32;20444;-74
2022/09/28 11:58:39;;;;;;;3.72;1.27;;;;;;;14.89;100.00;97115.88;4343445;32;20386;-73
2022/09/28 12:01:34;;;;;;;1.65;1.55;;;;;;;14.62;100.00;97124.41;4366864;32;20039;-73
2022/09/28 12:04:10;;;;;;;4.25;1.17;;;;;;;14.20;100.00;97122.22;4368485;32;20400;-72
2022/09/28 12:06:45;;;;;;;5.80;1.55;;;;;;;14.57;100.00;97089.34;4386792;32;20064;-75
2022/09/28 12:09:48;;;;;;;4.72;1.40;;;;;;;14.83;100.00;97106.34;4414489;32;20068;-71